sensor_id;sensor_type;location;lat;lon;timestamp;temperature;humidity
21090;DHT22;10703;51.020;6.128;2023-07-20T00:02:02;16.40;99.90
21090;DHT22;10703;51.020;6.128;2023-07-20T00:04:29;16.30;99.90
21090;DHT22;10703;51.020;6.128;2023-07-20T00:06:56;16.30;99.90
21090;DHT22;10703;51.020;6.128;2023-07-20T00:09:22;16.20;99.90
21090;DHT22;10703;51.020;6.128;2023-07-20T00:11:50;16.20;99.90
21090;DHT22;10703;51.020;6.128;2023-07-20T00:14:17;16.10;99.90
21090;DHT22;10703;51.020;6.128;2023-07-20T00:16:45;16.10;99.90
21090;DHT22;10703;51.020;6.128;2023-07-20T00:19:26;16.00;99.90
21090;DHT22;10703;51.020;6.128;2023-07-20T00:21:54;16.00;99.90
21090;DHT22;10703;51.020;6.128;2023-07-20T00:24:24;15.90;99.90
21090;DHT22;10703;51.020;6.128;2023-07-20T00:26:50;15.80;99.90
21090;DHT22;10703;51.020;6.128;2023-07-20T00:29:18;15.70;99.90
21090;DHT22;10703;51.020;6.128;2023-07-20T00:31:44;15.80;99.90
21090;DHT22;10703;51.020;6.128;2023-07-20T00:34:13;15.90;99.90
21090;DHT22;10703;51.020;6.128;2023-07-20T00:36:40;15.90;99.90
21090;DHT22;10703;51.020;6.128;2023-07-20T00:39:06;16.00;99.90
21090;DHT22;10703;51.020;6.128;2023-07-20T00:41:33;15.90;99.90
21090;DHT22;10703;51.020;6.128;2023-07-20T00:44:00;15.90;99.90
21090;DHT22;10703;51.020;6.128;2023-07-20T00:46:27;15.90;99.90
21090;DHT22;10703;51.020;6.128;2023-07-20T00:48:54;15.80;99.90
21090;DHT22;10703;51.020;6.128;2023-07-20T00:51:21;15.70;99.90
21090;DHT22;10703;51.020;6.128;2023-07-20T00:53:49;15.60;99.90
21090;DHT22;10703;51.020;6.128;2023-07-20T00:56:16;15.60;99.90
21090;DHT22;10703;51.020;6.128;2023-07-20T00:58:43;15.60;99.90
21090;DHT22;10703;51.020;6.128;2023-07-20T01:01:10;15.50;99.90
21090;DHT22;10703;51.020;6.128;2023-07-20T01:03:37;15.50;99.90
21090;DHT22;10703;51.020;6.128;2023-07-20T01:14:40;15.40;99.90
21090;DHT22;10703;51.020;6.128;2023-07-20T01:17:06;15.40;99.90
21090;DHT22;10703;51.020;6.128;2023-07-20T01:19:33;15.30;99.90
21090;DHT22;10703;51.020;6.128;2023-07-20T01:27:57;15.40;99.90
21090;DHT22;10703;51.020;6.128;2023-07-20T01:33:19;15.60;99.90
21090;DHT22;10703;51.020;6.128;2023-07-20T01:35:53;15.60;99.90
21090;DHT22;10703;51.020;6.128;2023-07-20T01:38:21;15.50;99.90
21090;DHT22;10703;51.020;6.128;2023-07-20T01:40:49;15.60;99.90
21090;DHT22;10703;51.020;6.128;2023-07-20T01:43:17;15.50;99.90
21090;DHT22;10703;51.020;6.128;2023-07-20T01:45:44;15.40;99.90
21090;DHT22;10703;51.020;6.128;2023-07-20T01:48:11;15.40;99.90
21090;DHT22;10703;51.020;6.128;2023-07-20T01:50:38;15.50;99.90
21090;DHT22;10703;51.020;6.128;2023-07-20T01:53:04;15.50;99.90
21090;DHT22;10703;51.020;6.128;2023-07-20T01:55:31;15.70;99.90
21090;DHT22;10703;51.020;6.128;2023-07-20T01:57:58;15.60;99.90
21090;DHT22;10703;51.020;6.128;2023-07-20T02:00:26;15.70;99.90
21090;DHT22;10703;51.020;6.128;2023-07-20T02:02:53;15.70;99.90
21090;DHT22;10703;51.020;6.128;2023-07-20T02:05:19;15.70;99.90
21090;DHT22;10703;51.020;6.128;2023-07-20T02:07:46;15.80;99.90
21090;DHT22;10703;51.020;6.128;2023-07-20T02:10:13;15.80;99.90
21090;DHT22;10703;51.020;6.128;2023-07-20T02:12:40;15.80;99.90
21090;DHT22;10703;51.020;6.128;2023-07-20T02:15:07;15.80;99.90
21090;DHT22;10703;51.020;6.128;2023-07-20T02:17:34;15.80;99.90
21090;DHT22;10703;51.020;6.128;2023-07-20T02:20:01;15.80;99.90
21090;DHT22;10703;51.020;6.128;2023-07-20T02:22:28;15.80;99.90
21090;DHT22;10703;51.020;6.128;2023-07-20T02:24:54;15.80;99.90
21090;DHT22;10703;51.020;6.128;2023-07-20T02:27:21;15.80;99.90
21090;DHT22;10703;51.020;6.128;2023-07-20T02:29:47;15.80;99.90
21090;DHT22;10703;51.020;6.128;2023-07-20T02:32:14;15.70;99.90
21090;DHT22;10703;51.020;6.128;2023-07-20T02:34:41;15.70;99.90
21090;DHT22;10703;51.020;6.128;2023-07-20T02:37:08;15.70;99.90
21090;DHT22;10703;51.020;6.128;2023-07-20T02:39:37;15.70;99.90
21090;DHT22;10703;51.020;6.128;2023-07-20T02:42:04;15.60;99.90
21090;DHT22;10703;51.020;6.128;2023-07-20T02:44:31;15.70;99.90
21090;DHT22;10703;51.020;6.128;2023-07-20T02:46:58;15.60;99.90
21090;DHT22;10703;51.020;6.128;2023-07-20T02:49:24;15.60;99.90
21090;DHT22;10703;51.020;6.128;2023-07-20T02:51:51;15.40;99.90
21090;DHT22;10703;51.020;6.128;2023-07-20T02:54:18;15.40;99.90
21090;DHT22;10703;51.020;6.128;2023-07-20T02:56:45;15.30;99.90
21090;DHT22;10703;51.020;6.128;2023-07-20T02:59:11;15.20;99.90
21090;DHT22;10703;51.020;6.128;2023-07-20T03:01:38;15.10;99.90
21090;DHT22;10703;51.020;6.128;2023-07-20T03:04:05;15.00;99.90
21090;DHT22;10703;51.020;6.128;2023-07-20T03:06:31;14.90;99.90
21090;DHT22;10703;51.020;6.128;2023-07-20T03:08:58;14.80;99.90
21090;DHT22;10703;51.020;6.128;2023-07-20T03:11:25;14.70;99.90
21090;DHT22;10703;51.020;6.128;2023-07-20T03:13:52;14.70;99.90
21090;DHT22;10703;51.020;6.128;2023-07-20T03:16:19;14.60;99.90
21090;DHT22;10703;51.020;6.128;2023-07-20T03:18:47;14.50;99.90
21090;DHT22;10703;51.020;6.128;2023-07-20T03:21:13;14.50;99.90
21090;DHT22;10703;51.020;6.128;2023-07-20T03:23:41;14.50;99.90
21090;DHT22;10703;51.020;6.128;2023-07-20T03:26:08;14.60;99.90
21090;DHT22;10703;51.020;6.128;2023-07-20T03:28:36;14.70;99.90
21090;DHT22;10703;51.020;6.128;2023-07-20T03:31:02;14.90;99.90
21090;DHT22;10703;51.020;6.128;2023-07-20T03:33:30;14.90;99.90
21090;DHT22;10703;51.020;6.128;2023-07-20T03:35:58;14.90;99.90
21090;DHT22;10703;51.020;6.128;2023-07-20T03:38:26;14.90;99.90
21090;DHT22;10703;51.020;6.128;2023-07-20T03:40:55;14.90;99.90
21090;DHT22;10703;51.020;6.128;2023-07-20T03:43:22;15.00;99.90
21090;DHT22;10703;51.020;6.128;2023-07-20T03:45:49;15.10;99.90
21090;DHT22;10703;51.020;6.128;2023-07-20T03:48:17;15.10;99.90
21090;DHT22;10703;51.020;6.128;2023-07-20T03:50:44;15.10;99.90
21090;DHT22;10703;51.020;6.128;2023-07-20T03:53:12;15.20;99.90
21090;DHT22;10703;51.020;6.128;2023-07-20T03:55:39;15.20;99.90
21090;DHT22;10703;51.020;6.128;2023-07-20T03:58:07;15.20;99.90
21090;DHT22;10703;51.020;6.128;2023-07-20T04:00:35;15.20;99.90
21090;DHT22;10703;51.020;6.128;2023-07-20T04:03:01;15.30;99.90
21090;DHT22;10703;51.020;6.128;2023-07-20T04:05:28;15.20;99.90
21090;DHT22;10703;51.020;6.128;2023-07-20T04:07:55;15.20;99.90
21090;DHT22;10703;51.020;6.128;2023-07-20T04:10:22;15.30;99.90
21090;DHT22;10703;51.020;6.128;2023-07-20T04:12:48;15.30;99.90
21090;DHT22;10703;51.020;6.128;2023-07-20T04:15:15;15.30;99.90
21090;DHT22;10703;51.020;6.128;2023-07-20T04:17:42;15.30;99.90
21090;DHT22;10703;51.020;6.128;2023-07-20T04:20:09;15.40;99.90
21090;DHT22;10703;51.020;6.128;2023-07-20T04:22:36;15.40;99.90
21090;DHT22;10703;51.020;6.128;2023-07-20T04:25:03;15.40;99.90
21090;DHT22;10703;51.020;6.128;2023-07-20T04:27:30;15.40;99.90
21090;DHT22;10703;51.020;6.128;2023-07-20T04:30:00;15.50;99.90
21090;DHT22;10703;51.020;6.128;2023-07-20T04:32:26;15.60;99.90
21090;DHT22;10703;51.020;6.128;2023-07-20T04:34:53;15.60;99.90
21090;DHT22;10703;51.020;6.128;2023-07-20T04:37:20;15.60;99.90
21090;DHT22;10703;51.020;6.128;2023-07-20T04:39:46;15.80;99.90
21090;DHT22;10703;51.020;6.128;2023-07-20T04:42:13;15.80;99.90
21090;DHT22;10703;51.020;6.128;2023-07-20T04:44:40;15.90;99.90
21090;DHT22;10703;51.020;6.128;2023-07-20T04:47:06;15.90;99.90
21090;DHT22;10703;51.020;6.128;2023-07-20T04:49:34;16.00;99.90
21090;DHT22;10703;51.020;6.128;2023-07-20T04:52:02;16.00;99.90
21090;DHT22;10703;51.020;6.128;2023-07-20T04:54:29;16.00;99.90
21090;DHT22;10703;51.020;6.128;2023-07-20T04:56:56;16.10;99.90
21090;DHT22;10703;51.020;6.128;2023-07-20T04:59:22;16.10;99.90
21090;DHT22;10703;51.020;6.128;2023-07-20T05:01:49;16.20;99.90
21090;DHT22;10703;51.020;6.128;2023-07-20T05:04:16;16.20;99.90
21090;DHT22;10703;51.020;6.128;2023-07-20T05:06:44;16.40;99.90
21090;DHT22;10703;51.020;6.128;2023-07-20T05:09:11;16.30;99.90
21090;DHT22;10703;51.020;6.128;2023-07-20T05:11:38;16.40;99.90
21090;DHT22;10703;51.020;6.128;2023-07-20T05:14:04;16.40;99.90
21090;DHT22;10703;51.020;6.128;2023-07-20T05:16:31;16.40;99.90
21090;DHT22;10703;51.020;6.128;2023-07-20T05:18:58;16.50;99.90
21090;DHT22;10703;51.020;6.128;2023-07-20T05:21:25;16.60;99.90
21090;DHT22;10703;51.020;6.128;2023-07-20T05:23:51;16.60;99.90
21090;DHT22;10703;51.020;6.128;2023-07-20T05:26:18;16.80;99.90
21090;DHT22;10703;51.020;6.128;2023-07-20T05:28:44;16.70;99.90
21090;DHT22;10703;51.020;6.128;2023-07-20T05:31:11;16.80;99.90
21090;DHT22;10703;51.020;6.128;2023-07-20T05:33:38;16.70;99.90
21090;DHT22;10703;51.020;6.128;2023-07-20T05:36:04;16.80;99.90
21090;DHT22;10703;51.020;6.128;2023-07-20T05:38:31;17.00;99.90
21090;DHT22;10703;51.020;6.128;2023-07-20T05:41:00;17.10;99.90
21090;DHT22;10703;51.020;6.128;2023-07-20T05:43:28;17.20;99.90
21090;DHT22;10703;51.020;6.128;2023-07-20T05:45:55;17.20;99.90
21090;DHT22;10703;51.020;6.128;2023-07-20T05:48:21;17.20;99.90
21090;DHT22;10703;51.020;6.128;2023-07-20T05:50:48;17.10;99.90
21090;DHT22;10703;51.020;6.128;2023-07-20T05:53:15;17.20;99.90
21090;DHT22;10703;51.020;6.128;2023-07-20T05:55:42;17.30;99.90
21090;DHT22;10703;51.020;6.128;2023-07-20T05:58:08;17.40;99.90
21090;DHT22;10703;51.020;6.128;2023-07-20T06:00:35;17.60;99.90
21090;DHT22;10703;51.020;6.128;2023-07-20T06:03:02;17.70;99.90
21090;DHT22;10703;51.020;6.128;2023-07-20T06:05:29;17.80;99.90
21090;DHT22;10703;51.020;6.128;2023-07-20T06:07:56;17.70;99.90
21090;DHT22;10703;51.020;6.128;2023-07-20T06:10:24;17.90;99.90
21090;DHT22;10703;51.020;6.128;2023-07-20T06:12:51;17.80;99.90
21090;DHT22;10703;51.020;6.128;2023-07-20T06:15:30;17.90;99.90
21090;DHT22;10703;51.020;6.128;2023-07-20T06:17:57;17.80;99.90
21090;DHT22;10703;51.020;6.128;2023-07-20T06:20:25;17.80;99.90
21090;DHT22;10703;51.020;6.128;2023-07-20T06:22:52;17.70;99.90
21090;DHT22;10703;51.020;6.128;2023-07-20T06:25:18;17.90;99.90
21090;DHT22;10703;51.020;6.128;2023-07-20T06:27:48;18.20;99.90
21090;DHT22;10703;51.020;6.128;2023-07-20T06:30:15;18.30;99.90
21090;DHT22;10703;51.020;6.128;2023-07-20T06:32:42;18.40;99.90
21090;DHT22;10703;51.020;6.128;2023-07-20T06:35:08;18.30;99.90
21090;DHT22;10703;51.020;6.128;2023-07-20T06:37:35;18.60;99.90
21090;DHT22;10703;51.020;6.128;2023-07-20T06:40:03;19.00;99.90
21090;DHT22;10703;51.020;6.128;2023-07-20T06:42:35;19.30;99.90
21090;DHT22;10703;51.020;6.128;2023-07-20T06:45:05;19.40;99.90
21090;DHT22;10703;51.020;6.128;2023-07-20T06:47:32;19.20;99.90
21090;DHT22;10703;51.020;6.128;2023-07-20T06:49:59;19.10;99.90
21090;DHT22;10703;51.020;6.128;2023-07-20T06:52:25;19.30;99.90
21090;DHT22;10703;51.020;6.128;2023-07-20T06:54:52;19.50;99.90
21090;DHT22;10703;51.020;6.128;2023-07-20T06:57:19;19.50;99.90
21090;DHT22;10703;51.020;6.128;2023-07-20T06:59:45;19.50;99.90
21090;DHT22;10703;51.020;6.128;2023-07-20T07:02:12;19.00;99.90
21090;DHT22;10703;51.020;6.128;2023-07-20T07:04:41;18.80;99.90
21090;DHT22;10703;51.020;6.128;2023-07-20T07:07:08;18.70;99.90
21090;DHT22;10703;51.020;6.128;2023-07-20T07:09:35;18.60;99.90
21090;DHT22;10703;51.020;6.128;2023-07-20T07:12:03;18.80;99.90
21090;DHT22;10703;51.020;6.128;2023-07-20T07:14:30;19.40;99.90
21090;DHT22;10703;51.020;6.128;2023-07-20T07:16:59;20.40;99.90
21090;DHT22;10703;51.020;6.128;2023-07-20T07:19:30;21.50;99.90
21090;DHT22;10703;51.020;6.128;2023-07-20T07:21:57;22.00;99.90
21090;DHT22;10703;51.020;6.128;2023-07-20T07:24:26;21.50;99.90
21090;DHT22;10703;51.020;6.128;2023-07-20T07:26:55;21.00;99.90
21090;DHT22;10703;51.020;6.128;2023-07-20T07:29:21;20.50;99.90
21090;DHT22;10703;51.020;6.128;2023-07-20T07:31:48;20.10;99.90
21090;DHT22;10703;51.020;6.128;2023-07-20T07:34:15;20.00;99.90
21090;DHT22;10703;51.020;6.128;2023-07-20T07:36:41;20.20;99.90
21090;DHT22;10703;51.020;6.128;2023-07-20T07:39:08;20.70;99.90
21090;DHT22;10703;51.020;6.128;2023-07-20T07:41:38;21.20;99.90
21090;DHT22;10703;51.020;6.128;2023-07-20T07:44:05;20.60;99.90
21090;DHT22;10703;51.020;6.128;2023-07-20T07:46:32;21.10;99.90
21090;DHT22;10703;51.020;6.128;2023-07-20T07:48:59;21.80;99.90
21090;DHT22;10703;51.020;6.128;2023-07-20T07:51:26;22.50;99.90
21090;DHT22;10703;51.020;6.128;2023-07-20T07:53:54;22.30;99.90
21090;DHT22;10703;51.020;6.128;2023-07-20T07:56:20;21.70;99.90
21090;DHT22;10703;51.020;6.128;2023-07-20T07:58:50;21.30;99.90
21090;DHT22;10703;51.020;6.128;2023-07-20T08:01:20;20.60;99.90
21090;DHT22;10703;51.020;6.128;2023-07-20T08:03:47;20.30;99.90
21090;DHT22;10703;51.020;6.128;2023-07-20T08:06:14;20.40;99.90
21090;DHT22;10703;51.020;6.128;2023-07-20T08:08:41;20.80;99.90
21090;DHT22;10703;51.020;6.128;2023-07-20T08:11:08;21.50;99.90
21090;DHT22;10703;51.020;6.128;2023-07-20T08:13:36;22.00;99.90
21090;DHT22;10703;51.020;6.128;2023-07-20T08:16:03;22.00;99.90
21090;DHT22;10703;51.020;6.128;2023-07-20T08:18:30;22.00;99.90
21090;DHT22;10703;51.020;6.128;2023-07-20T08:20:57;22.50;99.90
21090;DHT22;10703;51.020;6.128;2023-07-20T08:23:24;23.20;99.90
21090;DHT22;10703;51.020;6.128;2023-07-20T08:25:51;23.70;99.90
21090;DHT22;10703;51.020;6.128;2023-07-20T08:28:17;23.30;99.90
21090;DHT22;10703;51.020;6.128;2023-07-20T08:30:49;22.80;99.90
21090;DHT22;10703;51.020;6.128;2023-07-20T08:33:19;22.20;99.90
21090;DHT22;10703;51.020;6.128;2023-07-20T08:35:46;21.60;99.90
21090;DHT22;10703;51.020;6.128;2023-07-20T08:38:13;21.40;99.90
21090;DHT22;10703;51.020;6.128;2023-07-20T08:40:45;21.70;99.90
21090;DHT22;10703;51.020;6.128;2023-07-20T08:43:13;21.90;99.90
21090;DHT22;10703;51.020;6.128;2023-07-20T08:45:40;22.30;99.90
21090;DHT22;10703;51.020;6.128;2023-07-20T08:48:08;22.80;99.90
21090;DHT22;10703;51.020;6.128;2023-07-20T08:50:35;23.00;99.90
21090;DHT22;10703;51.020;6.128;2023-07-20T08:53:02;23.30;99.90
21090;DHT22;10703;51.020;6.128;2023-07-20T08:55:30;23.10;99.90
21090;DHT22;10703;51.020;6.128;2023-07-20T08:57:58;24.20;99.90
21090;DHT22;10703;51.020;6.128;2023-07-20T09:00:26;24.90;99.90
21090;DHT22;10703;51.020;6.128;2023-07-20T09:02:54;25.10;99.90
21090;DHT22;10703;51.020;6.128;2023-07-20T09:05:23;24.80;99.90
21090;DHT22;10703;51.020;6.128;2023-07-20T09:07:53;24.30;99.90
21090;DHT22;10703;51.020;6.128;2023-07-20T09:10:23;23.50;99.90
21090;DHT22;10703;51.020;6.128;2023-07-20T09:12:51;23.00;99.90
21090;DHT22;10703;51.020;6.128;2023-07-20T09:15:19;23.20;99.90
21090;DHT22;10703;51.020;6.128;2023-07-20T09:17:47;23.50;99.90
21090;DHT22;10703;51.020;6.128;2023-07-20T09:20:16;23.50;99.90
21090;DHT22;10703;51.020;6.128;2023-07-20T09:22:47;23.90;99.90
21090;DHT22;10703;51.020;6.128;2023-07-20T09:25:17;24.60;98.70
21090;DHT22;10703;51.020;6.128;2023-07-20T09:27:46;25.40;98.70
21090;DHT22;10703;51.020;6.128;2023-07-20T09:30:16;26.30;97.10
21090;DHT22;10703;51.020;6.128;2023-07-20T09:32:46;26.20;95.70
21090;DHT22;10703;51.020;6.128;2023-07-20T09:35:18;25.90;97.80
21090;DHT22;10703;51.020;6.128;2023-07-20T09:37:59;25.90;97.90
21090;DHT22;10703;51.020;6.128;2023-07-20T09:40:29;25.20;97.40
21090;DHT22;10703;51.020;6.128;2023-07-20T09:42:59;24.70;97.90
21090;DHT22;10703;51.020;6.128;2023-07-20T09:45:34;25.30;97.30
21090;DHT22;10703;51.020;6.128;2023-07-20T09:48:06;25.80;97.10
21090;DHT22;10703;51.020;6.128;2023-07-20T09:50:48;25.90;95.30
21090;DHT22;10703;51.020;6.128;2023-07-20T09:53:16;25.80;95.50
21090;DHT22;10703;51.020;6.128;2023-07-20T09:55:45;26.70;94.80
21090;DHT22;10703;51.020;6.128;2023-07-20T09:58:13;27.30;94.30
21090;DHT22;10703;51.020;6.128;2023-07-20T10:00:41;27.10;94.90
21090;DHT22;10703;51.020;6.128;2023-07-20T10:03:18;25.80;96.50
21090;DHT22;10703;51.020;6.128;2023-07-20T10:05:52;25.50;96.60
21090;DHT22;10703;51.020;6.128;2023-07-20T10:08:24;25.70;96.00
21090;DHT22;10703;51.020;6.128;2023-07-20T10:10:54;25.70;95.00
21090;DHT22;10703;51.020;6.128;2023-07-20T10:13:26;25.20;95.80
21090;DHT22;10703;51.020;6.128;2023-07-20T10:16:02;25.30;95.90
21090;DHT22;10703;51.020;6.128;2023-07-20T10:18:38;25.70;95.40
21090;DHT22;10703;51.020;6.128;2023-07-20T10:21:08;25.40;94.90
21090;DHT22;10703;51.020;6.128;2023-07-20T10:23:39;25.90;94.40
21090;DHT22;10703;51.020;6.128;2023-07-20T10:26:06;26.80;93.50
21090;DHT22;10703;51.020;6.128;2023-07-20T10:28:34;27.20;93.10
21090;DHT22;10703;51.020;6.128;2023-07-20T10:31:00;26.90;92.60
21090;DHT22;10703;51.020;6.128;2023-07-20T10:33:27;26.40;93.00
21090;DHT22;10703;51.020;6.128;2023-07-20T10:35:56;25.90;92.70
21090;DHT22;10703;51.020;6.128;2023-07-20T10:38:42;25.80;92.10
21090;DHT22;10703;51.020;6.128;2023-07-20T10:43:44;25.80;92.50
21090;DHT22;10703;51.020;6.128;2023-07-20T10:46:12;26.40;92.90
21090;DHT22;10703;51.020;6.128;2023-07-20T10:49:02;26.70;93.00
21090;DHT22;10703;51.020;6.128;2023-07-20T10:51:29;26.00;92.60
21090;DHT22;10703;51.020;6.128;2023-07-20T10:53:56;26.10;92.70
21090;DHT22;10703;51.020;6.128;2023-07-20T10:56:28;26.70;92.10
21090;DHT22;10703;51.020;6.128;2023-07-20T10:58:58;27.30;90.90
21090;DHT22;10703;51.020;6.128;2023-07-20T11:01:29;27.70;91.00
21090;DHT22;10703;51.020;6.128;2023-07-20T11:03:59;28.50;90.50
21090;DHT22;10703;51.020;6.128;2023-07-20T11:06:31;29.20;89.50
21090;DHT22;10703;51.020;6.128;2023-07-20T11:11:38;27.80;89.90
21090;DHT22;10703;51.020;6.128;2023-07-20T11:14:08;27.10;90.10
21090;DHT22;10703;51.020;6.128;2023-07-20T11:16:38;25.60;91.40
21090;DHT22;10703;51.020;6.128;2023-07-20T11:19:06;25.50;91.10
21090;DHT22;10703;51.020;6.128;2023-07-20T11:21:44;25.30;90.80
21090;DHT22;10703;51.020;6.128;2023-07-20T11:24:28;25.20;90.10
21090;DHT22;10703;51.020;6.128;2023-07-20T11:26:55;25.10;90.80
21090;DHT22;10703;51.020;6.128;2023-07-20T11:29:23;24.90;91.30
21090;DHT22;10703;51.020;6.128;2023-07-20T11:32:00;24.80;92.10
21090;DHT22;10703;51.020;6.128;2023-07-20T11:34:27;24.70;92.20
21090;DHT22;10703;51.020;6.128;2023-07-20T11:36:54;25.00;91.50
21090;DHT22;10703;51.020;6.128;2023-07-20T11:39:24;25.10;92.30
21090;DHT22;10703;51.020;6.128;2023-07-20T11:41:57;25.20;91.70
21090;DHT22;10703;51.020;6.128;2023-07-20T11:44:28;25.30;92.20
21090;DHT22;10703;51.020;6.128;2023-07-20T11:47:09;25.80;91.20
21090;DHT22;10703;51.020;6.128;2023-07-20T11:49:38;26.60;90.00
21090;DHT22;10703;51.020;6.128;2023-07-20T11:52:10;27.30;90.50
21090;DHT22;10703;51.020;6.128;2023-07-20T11:54:41;27.20;89.30
21090;DHT22;10703;51.020;6.128;2023-07-20T11:57:20;27.30;89.20
21090;DHT22;10703;51.020;6.128;2023-07-20T11:59:57;27.10;89.20
21090;DHT22;10703;51.020;6.128;2023-07-20T12:02:29;26.90;89.30
21090;DHT22;10703;51.020;6.128;2023-07-20T12:04:57;26.30;90.50
21090;DHT22;10703;51.020;6.128;2023-07-20T12:07:27;26.30;90.50
21090;DHT22;10703;51.020;6.128;2023-07-20T12:12:32;27.50;89.50
21090;DHT22;10703;51.020;6.128;2023-07-20T12:15:26;27.90;88.40
21090;DHT22;10703;51.020;6.128;2023-07-20T12:17:58;27.50;87.90
21090;DHT22;10703;51.020;6.128;2023-07-20T12:20:33;27.00;89.60
21090;DHT22;10703;51.020;6.128;2023-07-20T12:23:07;26.70;90.10
21090;DHT22;10703;51.020;6.128;2023-07-20T12:25:37;26.60;90.20
21090;DHT22;10703;51.020;6.128;2023-07-20T12:28:07;27.50;92.20
21090;DHT22;10703;51.020;6.128;2023-07-20T12:30:34;27.30;88.10
21090;DHT22;10703;51.020;6.128;2023-07-20T12:33:02;27.20;87.80
21090;DHT22;10703;51.020;6.128;2023-07-20T12:35:30;27.80;88.10
21090;DHT22;10703;51.020;6.128;2023-07-20T12:37:57;27.80;87.50
21090;DHT22;10703;51.020;6.128;2023-07-20T12:40:25;26.80;89.10
21090;DHT22;10703;51.020;6.128;2023-07-20T12:42:52;26.30;89.50
21090;DHT22;10703;51.020;6.128;2023-07-20T12:45:18;26.40;90.60
21090;DHT22;10703;51.020;6.128;2023-07-20T12:47:45;25.90;89.80
21090;DHT22;10703;51.020;6.128;2023-07-20T12:50:12;26.30;90.10
21090;DHT22;10703;51.020;6.128;2023-07-20T12:52:39;26.20;90.10
21090;DHT22;10703;51.020;6.128;2023-07-20T12:55:07;26.40;89.80
21090;DHT22;10703;51.020;6.128;2023-07-20T12:57:35;26.30;90.30
21090;DHT22;10703;51.020;6.128;2023-07-20T13:00:03;26.40;89.50
21090;DHT22;10703;51.020;6.128;2023-07-20T13:02:32;26.00;90.20
21090;DHT22;10703;51.020;6.128;2023-07-20T13:04:59;26.30;88.40
21090;DHT22;10703;51.020;6.128;2023-07-20T13:07:35;26.10;88.20
21090;DHT22;10703;51.020;6.128;2023-07-20T13:10:05;25.80;90.50
21090;DHT22;10703;51.020;6.128;2023-07-20T13:12:34;25.50;89.30
21090;DHT22;10703;51.020;6.128;2023-07-20T13:15:02;25.50;90.00
21090;DHT22;10703;51.020;6.128;2023-07-20T13:17:36;25.30;90.20
21090;DHT22;10703;51.020;6.128;2023-07-20T13:20:03;25.10;90.10
21090;DHT22;10703;51.020;6.128;2023-07-20T13:22:34;25.40;89.80
21090;DHT22;10703;51.020;6.128;2023-07-20T13:25:01;25.70;90.10
21090;DHT22;10703;51.020;6.128;2023-07-20T13:27:28;25.90;89.20
21090;DHT22;10703;51.020;6.128;2023-07-20T13:29:59;26.10;88.70
21090;DHT22;10703;51.020;6.128;2023-07-20T13:32:29;26.60;88.00
21090;DHT22;10703;51.020;6.128;2023-07-20T13:35:00;26.80;87.80
21090;DHT22;10703;51.020;6.128;2023-07-20T13:37:26;26.50;86.40
21090;DHT22;10703;51.020;6.128;2023-07-20T13:39:54;26.20;84.40
21090;DHT22;10703;51.020;6.128;2023-07-20T13:42:20;26.30;84.70
21090;DHT22;10703;51.020;6.128;2023-07-20T13:44:48;26.00;85.10
21090;DHT22;10703;51.020;6.128;2023-07-20T13:47:15;26.20;85.80
21090;DHT22;10703;51.020;6.128;2023-07-20T13:49:44;25.80;85.50
21090;DHT22;10703;51.020;6.128;2023-07-20T13:52:14;25.70;86.40
21090;DHT22;10703;51.020;6.128;2023-07-20T13:54:44;25.60;88.00
21090;DHT22;10703;51.020;6.128;2023-07-20T13:57:17;26.00;88.40
21090;DHT22;10703;51.020;6.128;2023-07-20T13:59:44;26.00;88.30
21090;DHT22;10703;51.020;6.128;2023-07-20T14:02:13;25.80;86.50
21090;DHT22;10703;51.020;6.128;2023-07-20T14:04:43;25.80;86.90
21090;DHT22;10703;51.020;6.128;2023-07-20T14:07:10;25.60;87.00
21090;DHT22;10703;51.020;6.128;2023-07-20T14:09:37;25.50;89.80
21090;DHT22;10703;51.020;6.128;2023-07-20T14:12:24;25.80;88.60
21090;DHT22;10703;51.020;6.128;2023-07-20T14:14:51;25.90;87.00
21090;DHT22;10703;51.020;6.128;2023-07-20T14:17:17;25.90;88.70
21090;DHT22;10703;51.020;6.128;2023-07-20T14:19:44;25.90;87.90
21090;DHT22;10703;51.020;6.128;2023-07-20T14:22:11;25.90;88.30
21090;DHT22;10703;51.020;6.128;2023-07-20T14:24:38;26.10;87.50
21090;DHT22;10703;51.020;6.128;2023-07-20T14:27:05;26.00;87.50
21090;DHT22;10703;51.020;6.128;2023-07-20T14:29:32;25.90;86.80
21090;DHT22;10703;51.020;6.128;2023-07-20T14:31:59;25.80;87.90
21090;DHT22;10703;51.020;6.128;2023-07-20T14:34:25;25.70;89.50
21090;DHT22;10703;51.020;6.128;2023-07-20T14:36:52;25.80;90.50
21090;DHT22;10703;51.020;6.128;2023-07-20T14:39:19;25.50;89.20
21090;DHT22;10703;51.020;6.128;2023-07-20T14:41:46;25.70;88.50
21090;DHT22;10703;51.020;6.128;2023-07-20T14:44:13;25.70;88.50
21090;DHT22;10703;51.020;6.128;2023-07-20T14:46:40;26.00;87.90
21090;DHT22;10703;51.020;6.128;2023-07-20T14:49:07;26.10;88.40
21090;DHT22;10703;51.020;6.128;2023-07-20T14:51:33;26.50;87.90
21090;DHT22;10703;51.020;6.128;2023-07-20T14:54:03;26.80;88.30
21090;DHT22;10703;51.020;6.128;2023-07-20T14:56:30;27.00;87.20
21090;DHT22;10703;51.020;6.128;2023-07-20T14:58:58;27.30;87.70
21090;DHT22;10703;51.020;6.128;2023-07-20T15:01:26;27.50;86.20
21090;DHT22;10703;51.020;6.128;2023-07-20T15:03:53;27.70;84.50
21090;DHT22;10703;51.020;6.128;2023-07-20T15:06:25;28.30;84.10
21090;DHT22;10703;51.020;6.128;2023-07-20T15:08:53;29.00;83.90
21090;DHT22;10703;51.020;6.128;2023-07-20T15:11:19;29.60;80.00
21090;DHT22;10703;51.020;6.128;2023-07-20T15:13:46;29.40;79.70
21090;DHT22;10703;51.020;6.128;2023-07-20T15:16:12;29.10;80.10
21090;DHT22;10703;51.020;6.128;2023-07-20T15:18:39;29.10;79.70
21090;DHT22;10703;51.020;6.128;2023-07-20T15:21:14;28.80;78.90
21090;DHT22;10703;51.020;6.128;2023-07-20T15:23:42;29.30;79.90
21090;DHT22;10703;51.020;6.128;2023-07-20T15:26:09;29.80;78.80
21090;DHT22;10703;51.020;6.128;2023-07-20T15:28:37;30.10;77.80
21090;DHT22;10703;51.020;6.128;2023-07-20T15:31:05;29.80;78.40
21090;DHT22;10703;51.020;6.128;2023-07-20T15:33:31;29.40;76.90
21090;DHT22;10703;51.020;6.128;2023-07-20T15:35:58;29.70;78.60
21090;DHT22;10703;51.020;6.128;2023-07-20T15:38:25;30.10;77.80
21090;DHT22;10703;51.020;6.128;2023-07-20T15:40:52;30.30;76.80
21090;DHT22;10703;51.020;6.128;2023-07-20T15:43:20;29.40;76.20
21090;DHT22;10703;51.020;6.128;2023-07-20T15:45:48;29.60;77.10
21090;DHT22;10703;51.020;6.128;2023-07-20T15:48:18;29.60;78.30
21090;DHT22;10703;51.020;6.128;2023-07-20T15:50:48;29.30;77.70
21090;DHT22;10703;51.020;6.128;2023-07-20T15:53:16;28.60;78.30
21090;DHT22;10703;51.020;6.128;2023-07-20T15:55:43;28.30;79.00
21090;DHT22;10703;51.020;6.128;2023-07-20T15:58:09;28.30;79.90
21090;DHT22;10703;51.020;6.128;2023-07-20T16:00:36;28.60;77.60
21090;DHT22;10703;51.020;6.128;2023-07-20T16:03:04;28.60;77.60